Time,TemperatureF,DewpointF,PressureIn,WindDirection,WindDirectionDegrees,WindSpeedMPH,WindSpeedGustMPH,Humidity,HourlyPrecipIn,Conditions,Clouds,dailyrainin,SoftwareType,DateUTC
2013-06-27 00:01:00,73.0,70.0,29.83,North,0,0.0,-999.0,88,-99.99,,,-99.99,,2013-06-27 04:01:00,
2013-06-27 00:11:00,73.0,68.0,29.83,North,0,0.0,-999.0,83,-99.99,,,-99.99,,2013-06-27 04:11:00,
2013-06-27 00:22:00,73.0,68.0,29.83,North,0,0.0,-999.0,83,-99.99,,,-99.99,,2013-06-27 04:22:00,
2013-06-27 00:33:00,73.0,68.0,29.83,North,0,0.0,-999.0,83,-99.99,,,-99.99,,2013-06-27 04:33:00,
2013-06-27 00:42:00,73.0,68.0,29.83,North,0,0.0,-999.0,83,-99.99,,,-99.99,,2013-06-27 04:42:00,
2013-06-27 01:02:00,73.0,68.0,29.83,North,0,0.0,-999.0,83,-99.99,,,-99.99,,2013-06-27 05:02:00,
2013-06-27 01:22:00,73.0,68.0,29.83,North,0,0.0,-999.0,83,-99.99,,,-99.99,,2013-06-27 05:22:00,
2013-06-27 01:32:00,73.0,68.0,29.82,North,0,0.0,-999.0,83,-99.99,,,-99.99,,2013-06-27 05:32:00,
2013-06-27 01:42:00,73.0,68.0,29.82,North,0,0.0,-999.0,83,-99.99,,,-99.99,,2013-06-27 05:42:00,
2013-06-27 02:02:00,72.0,66.0,29.82,North,0,0.0,-999.0,83,-99.99,,,-99.99,,2013-06-27 06:02:00,
2013-06-27 02:12:00,72.0,66.0,29.81,North,0,0.0,-999.0,83,-99.99,,,-99.99,,2013-06-27 06:12:00,
2013-06-27 02:23:00,72.0,66.0,29.81,North,0,0.0,-999.0,83,-99.99,,,-99.99,,2013-06-27 06:23:00,
2013-06-27 02:34:00,72.0,68.0,29.81,North,0,0.0,-999.0,88,-99.99,,,-99.99,,2013-06-27 06:34:00,
2013-06-27 02:43:00,72.0,68.0,29.81,North,0,0.0,-999.0,88,-99.99,,,-99.99,,2013-06-27 06:43:00,
2013-06-27 02:53:00,72.0,68.0,29.81,North,0,0.0,-999.0,88,-99.99,,,-99.99,,2013-06-27 06:53:00,
2013-06-27 03:02:00,72.0,68.0,29.81,North,0,0.0,-999.0,88,-99.99,,,-99.99,,2013-06-27 07:02:00,
2013-06-27 03:22:00,72.0,66.0,29.80,North,0,0.0,-999.0,83,-99.99,,,-99.99,,2013-06-27 07:22:00,
2013-06-27 03:33:00,72.0,66.0,29.80,North,0,0.0,-999.0,83,-99.99,,,-99.99,,2013-06-27 07:33:00,
2013-06-27 03:42:00,72.0,66.0,29.80,North,0,0.0,-999.0,83,-99.99,,,-99.99,,2013-06-27 07:42:00,
2013-06-27 04:01:00,72.0,66.0,29.80,North,0,0.0,-999.0,83,-99.99,,,-99.99,,2013-06-27 08:01:00,
2013-06-27 04:22:00,72.0,66.0,29.80,North,0,0.0,-999.0,83,-99.99,,,-99.99,,2013-06-27 08:22:00,
2013-06-27 04:34:00,72.0,66.0,29.80,North,0,0.0,-999.0,83,-99.99,,,-99.99,,2013-06-27 08:34:00,
2013-06-27 04:43:00,72.0,66.0,29.80,North,0,0.0,-999.0,83,-99.99,,,-99.99,,2013-06-27 08:43:00,
2013-06-27 04:52:00,70.0,66.0,29.80,North,0,0.0,-999.0,88,-99.99,,,-99.99,,2013-06-27 08:52:00,
2013-06-27 05:02:00,70.0,66.0,29.80,North,0,0.0,-999.0,88,-99.99,,,-99.99,,2013-06-27 09:02:00,
2013-06-27 05:22:00,70.0,66.0,29.80,North,0,0.0,-999.0,88,-99.99,,,-99.99,,2013-06-27 09:22:00,
2013-06-27 05:43:00,70.0,66.0,29.80,North,0,0.0,-999.0,88,-99.99,,,-99.99,,2013-06-27 09:43:00,
2013-06-27 05:53:00,70.0,66.0,29.80,North,0,0.0,-999.0,88,-99.99,,,-99.99,,2013-06-27 09:53:00,
2013-06-27 06:01:00,70.0,66.0,29.80,North,0,0.0,-999.0,88,-99.99,,,-99.99,,2013-06-27 10:01:00,
2013-06-27 06:11:00,70.0,66.0,29.80,North,0,0.0,-999.0,88,-99.99,,,-99.99,,2013-06-27 10:11:00,
2013-06-27 06:22:00,70.0,66.0,29.81,North,0,0.0,-999.0,88,-99.99,,,-99.99,,2013-06-27 10:22:00,
2013-06-27 06:44:00,70.0,66.0,29.81,North,0,0.0,-999.0,88,-99.99,,,-99.99,,2013-06-27 10:44:00,
2013-06-27 06:54:00,70.0,66.0,29.81,North,0,0.0,-999.0,88,-99.99,,,-99.99,,2013-06-27 10:54:00,
2013-06-27 07:02:00,70.0,66.0,29.81,North,0,0.0,-999.0,88,-99.99,,,-99.99,,2013-06-27 11:02:00,
2013-06-27 07:22:00,72.0,68.0,29.81,North,0,0.0,-999.0,88,-99.99,,,-99.99,,2013-06-27 11:22:00,
2013-06-27 07:33:00,72.0,68.0,29.81,North,0,0.0,-999.0,88,-99.99,,,-99.99,,2013-06-27 11:33:00,
2013-06-27 07:43:00,72.0,66.0,29.80,North,0,0.0,-999.0,83,-99.99,,,-99.99,,2013-06-27 11:43:00,
2013-06-27 07:52:00,72.0,66.0,29.80,North,0,0.0,-999.0,83,-99.99,,,-99.99,,2013-06-27 11:52:00,
2013-06-27 08:02:00,72.0,68.0,29.80,North,0,0.0,-999.0,88,-99.99,,,-99.99,,2013-06-27 12:02:00,
2013-06-27 08:22:00,73.0,70.0,29.80,North,0,0.0,-999.0,88,-99.99,,,-99.99,,2013-06-27 12:22:00,
2013-06-27 08:34:00,73.0,70.0,29.79,North,0,0.0,-999.0,88,-99.99,,,-99.99,,2013-06-27 12:34:00,
2013-06-27 08:42:00,73.0,70.0,29.79,North,0,0.0,-999.0,88,-99.99,,,-99.99,,2013-06-27 12:42:00,
2013-06-27 09:01:00,73.0,70.0,29.79,North,0,0.0,-999.0,88,-99.99,,,-99.99,,2013-06-27 13:01:00,
2013-06-27 09:22:00,75.0,70.0,29.78,North,0,0.0,-999.0,83,-99.99,,,-99.99,,2013-06-27 13:22:00,
2013-06-27 09:34:00,75.0,70.0,29.78,North,0,0.0,-999.0,83,-99.99,,,-99.99,,2013-06-27 13:34:00,
2013-06-27 09:43:00,75.0,70.0,29.79,SE,140,5.0,-999.0,83,-99.99,,,-99.99,,2013-06-27 13:43:00,
2013-06-27 09:52:00,75.0,70.0,29.79,SE,140,5.0,-999.0,83,-99.99,,,-99.99,,2013-06-27 13:52:00,
2013-06-27 10:02:00,77.0,70.0,29.78,North,0,0.0,-999.0,78,-99.99,,,-99.99,,2013-06-27 14:02:00,
2013-06-27 10:12:00,77.0,70.0,29.78,North,0,0.0,-999.0,78,-99.99,,,-99.99,,2013-06-27 14:12:00,
2013-06-27 10:43:00,79.0,70.0,29.76,North,0,0.0,-999.0,73,-99.99,,,-99.99,,2013-06-27 14:43:00,
2013-06-27 10:52:00,79.0,72.0,29.76,North,0,0.0,-999.0,78,-99.99,,,-99.99,,2013-06-27 14:52:00,
2013-06-27 11:01:00,79.0,72.0,29.76,North,0,0.0,-999.0,78,-99.99,,,-99.99,,2013-06-27 15:01:00,
2013-06-27 11:12:00,79.0,72.0,29.76,North,0,0.0,-999.0,78,-99.99,,,-99.99,,2013-06-27 15:12:00,
2013-06-27 11:22:00,79.0,72.0,29.76,North,0,0.0,-999.0,78,-99.99,,,-99.99,,2013-06-27 15:22:00,
2013-06-27 11:42:00,79.0,70.0,29.75,SE,140,6.0,-999.0,73,-99.99,,,-99.99,,2013-06-27 15:42:00,
2013-06-27 11:52:00,79.0,70.0,29.75,SE,140,6.0,-999.0,73,-99.99,,,-99.99,,2013-06-27 15:52:00,
2013-06-27 12:23:00,81.0,72.0,29.73,ESE,110,6.0,-999.0,74,-99.99,,,-99.99,,2013-06-27 16:23:00,
2013-06-27 12:34:00,81.0,72.0,29.73,SE,130,8.0,-999.0,74,-99.99,,,-99.99,,2013-06-27 16:34:00,
2013-06-27 12:43:00,81.0,72.0,29.73,SE,130,8.0,-999.0,74,-99.99,,,-99.99,,2013-06-27 16:43:00,
2013-06-27 12:53:00,81.0,72.0,29.73,SE,130,8.0,-999.0,74,-99.99,,,-99.99,,2013-06-27 16:53:00,
2013-06-27 13:02:00,81.0,72.0,29.72,South,180,9.0,-999.0,74,-99.99,,,-99.99,,2013-06-27 17:02:00,
2013-06-27 13:11:00,81.0,72.0,29.72,South,180,9.0,-999.0,74,-99.99,,,-99.99,,2013-06-27 17:11:00,
2013-06-27 13:43:00,81.0,72.0,29.71,South,170,6.0,-999.0,74,-99.99,,,-99.99,,2013-06-27 17:43:00,
2013-06-27 13:53:00,81.0,72.0,29.71,South,170,6.0,-999.0,74,-99.99,,,-99.99,,2013-06-27 17:53:00,
2013-06-27 14:02:00,82.0,72.0,29.70,SE,140,12.0,20.0,69,-99.99,,,-99.99,,2013-06-27 18:02:00,
2013-06-27 14:22:00,82.0,73.0,29.69,SSE,160,9.0,-999.0,74,-99.99,,,-99.99,,2013-06-27 18:22:00,
2013-06-27 14:32:00,82.0,73.0,29.68,SSE,150,14.0,20.0,74,-99.99,,,-99.99,,2013-06-27 18:32:00,
2013-06-27 14:44:00,82.0,73.0,29.68,SSE,150,14.0,20.0,74,-99.99,,,-99.99,,2013-06-27 18:44:00,
2013-06-27 14:52:00,82.0,73.0,29.68,SSE,150,14.0,20.0,74,-99.99,,,-99.99,,2013-06-27 18:52:00,
2013-06-27 15:01:00,81.0,73.0,29.67,South,190,15.0,24.0,78,-99.99,,,-99.99,,2013-06-27 19:01:00,
2013-06-27 15:11:00,81.0,73.0,29.67,South,190,15.0,24.0,78,-99.99,,,-99.99,,2013-06-27 19:11:00,
2013-06-27 15:42:00,81.0,72.0,29.67,WSW,250,10.0,16.0,74,-99.99,,,-99.99,,2013-06-27 19:42:00,
2013-06-27 15:53:00,79.0,70.0,29.66,WSW,240,12.0,16.0,73,-99.99,,,-99.99,,2013-06-27 19:53:00,
2013-06-27 16:02:00,79.0,70.0,29.66,WSW,240,12.0,16.0,73,-99.99,,,-99.99,,2013-06-27 20:02:00,
2013-06-27 16:11:00,77.0,70.0,29.65,West,280,9.0,-999.0,78,-99.99,,,-99.99,,2013-06-27 20:11:00,
2013-06-27 16:22:00,77.0,70.0,29.65,West,280,9.0,-999.0,78,-99.99,,,-99.99,,2013-06-27 20:22:00,
2013-06-27 16:47:00,75.0,70.0,29.64,WNW,290,6.0,-999.0,83,-99.99,,,-99.99,,2013-06-27 20:47:00,
2013-06-27 16:54:00,77.0,70.0,29.64,North,0,0.0,-999.0,78,-99.99,,,-99.99,,2013-06-27 20:54:00,
2013-06-27 17:06:00,77.0,70.0,29.64,North,0,0.0,-999.0,78,-99.99,,,-99.99,,2013-06-27 21:06:00,
2013-06-27 17:15:00,77.0,70.0,29.64,North,0,0.0,-999.0,78,-99.99,,,-99.99,,2013-06-27 21:15:00,
2013-06-27 17:26:00,77.0,70.0,29.63,West,270,8.0,-999.0,78,-99.99,,,-99.99,,2013-06-27 21:26:00,
2013-06-27 17:36:00,77.0,70.0,29.63,West,270,8.0,-999.0,78,-99.99,,,-99.99,,2013-06-27 21:36:00,
2013-06-27 17:48:00,77.0,72.0,29.63,WSW,240,6.0,-999.0,83,-99.99,,,-99.99,,2013-06-27 21:48:00,
2013-06-27 17:53:00,77.0,70.0,29.62,West,260,7.0,-999.0,78,-99.99,,,-99.99,,2013-06-27 21:53:00,
2013-06-27 18:48:00,79.0,70.0,29.63,WSW,250,10.0,18.0,73,-99.99,,,-99.99,,2013-06-27 22:48:00,
2013-06-27 18:57:00,79.0,70.0,29.63,West,260,12.0,21.0,73,-99.99,,,-99.99,,2013-06-27 22:57:00,
2013-06-27 19:07:00,79.0,70.0,29.63,West,260,12.0,21.0,73,-99.99,,,-99.99,,2013-06-27 23:07:00,
2013-06-27 19:25:00,79.0,70.0,29.64,West,280,8.0,-999.0,73,-99.99,,,-99.99,,2013-06-27 23:25:00,
2013-06-27 19:36:00,79.0,70.0,29.63,North,0,0.0,-999.0,73,-99.99,,,-99.99,,2013-06-27 23:36:00,
2013-06-27 19:46:00,79.0,70.0,29.63,North,0,0.0,-999.0,73,-99.99,,,-99.99,,2013-06-27 23:46:00,
2013-06-27 20:07:00,79.0,70.0,29.64,West,260,9.0,-999.0,73,-99.99,,,-99.99,,2013-06-28 00:07:00,
2013-06-27 20:30:00,79.0,70.0,29.64,WSW,240,5.0,-999.0,73,-99.99,,,-99.99,,2013-06-28 00:30:00,
2013-06-27 20:45:00,79.0,70.0,29.64,North,0,0.0,-999.0,73,-99.99,,,-99.99,,2013-06-28 00:45:00,
2013-06-27 20:54:00,79.0,70.0,29.64,North,0,0.0,-999.0,73,-99.99,,,-99.99,,2013-06-28 00:54:00,
2013-06-27 21:09:00,79.0,70.0,29.64,North,0,0.0,-999.0,73,-99.99,,,-99.99,,2013-06-28 01:09:00,
2013-06-27 21:14:00,79.0,70.0,29.64,North,0,0.0,-999.0,73,-99.99,,,-99.99,,2013-06-28 01:14:00,
2013-06-27 21:56:00,77.0,70.0,29.66,SW,230,8.0,-999.0,78,-99.99,,,-99.99,,2013-06-28 01:56:00,
2013-06-27 22:28:00,75.0,70.0,29.67,North,0,0.0,-999.0,83,-99.99,,,-99.99,,2013-06-28 02:28:00,
2013-06-27 22:49:00,73.0,70.0,29.66,North,0,0.0,-999.0,88,-99.99,,,-99.99,,2013-06-28 02:49:00,
2013-06-27 23:07:00,73.0,70.0,29.66,North,0,0.0,-999.0,88,-99.99,,,-99.99,,2013-06-28 03:07:00,
2013-06-27 23:28:00,73.0,70.0,29.65,North,0,0.0,-999.0,88,-99.99,,,-99.99,,2013-06-28 03:28:00,
2013-06-27 23:45:00,73.0,70.0,29.65,North,0,0.0,-999.0,88,-99.99,,,-99.99,,2013-06-28 03:45:00,